sensor_id;sensor_type;location;lat;lon;timestamp;pressure;altitude;pressure_sealevel;temperature;humidity
20971;BME280;10644;48.834;10.088;2023-03-14T00:02:03;95234.66;;;13.25;65.80
20971;BME280;10644;48.834;10.088;2023-03-14T00:04:29;95233.00;;;13.05;66.32
20971;BME280;10644;48.834;10.088;2023-03-14T00:07:03;95237.94;;;12.88;67.02
20971;BME280;10644;48.834;10.088;2023-03-14T00:09:29;95252.25;;;12.71;68.10
20971;BME280;10644;48.834;10.088;2023-03-14T00:12:17;95265.53;;;12.76;68.18
20971;BME280;10644;48.834;10.088;2023-03-14T00:14:44;95261.06;;;12.78;67.89
20971;BME280;10644;48.834;10.088;2023-03-14T00:17:11;95224.31;;;12.87;67.46
20971;BME280;10644;48.834;10.088;2023-03-14T00:19:41;95169.50;;;12.87;67.98
20971;BME280;10644;48.834;10.088;2023-03-14T00:22:09;95148.56;;;12.91;67.84
20971;BME280;10644;48.834;10.088;2023-03-14T00:24:34;95122.72;;;12.93;67.99
20971;BME280;10644;48.834;10.088;2023-03-14T00:27:01;95120.16;;;13.02;67.30
20971;BME280;10644;48.834;10.088;2023-03-14T00:29:37;95125.03;;;12.86;67.79
20971;BME280;10644;48.834;10.088;2023-03-14T00:32:11;95119.06;;;12.95;67.09
20971;BME280;10644;48.834;10.088;2023-03-14T00:34:37;95102.44;;;13.09;67.20
20971;BME280;10644;48.834;10.088;2023-03-14T00:37:14;95109.38;;;13.08;66.51
20971;BME280;10644;48.834;10.088;2023-03-14T00:39:40;95107.72;;;13.07;66.62
20971;BME280;10644;48.834;10.088;2023-03-14T00:42:11;95110.84;;;13.01;67.04
20971;BME280;10644;48.834;10.088;2023-03-14T00:44:36;95088.22;;;12.95;67.00
20971;BME280;10644;48.834;10.088;2023-03-14T00:47:03;95059.59;;;13.00;66.92
20971;BME280;10644;48.834;10.088;2023-03-14T00:49:28;95033.34;;;12.96;66.39
20971;BME280;10644;48.834;10.088;2023-03-14T00:52:20;95029.94;;;13.05;65.70
20971;BME280;10644;48.834;10.088;2023-03-14T00:54:52;94961.75;;;13.11;65.58
20971;BME280;10644;48.834;10.088;2023-03-14T00:57:24;94926.47;;;13.03;65.63
20971;BME280;10644;48.834;10.088;2023-03-14T00:59:55;94938.63;;;12.92;65.39
20971;BME280;10644;48.834;10.088;2023-03-14T01:02:33;94941.25;;;12.82;65.51
20971;BME280;10644;48.834;10.088;2023-03-14T01:05:09;94976.84;;;12.58;66.29
20971;BME280;10644;48.834;10.088;2023-03-14T01:07:44;95019.03;;;12.56;66.66
20971;BME280;10644;48.834;10.088;2023-03-14T01:10:10;95040.38;;;12.56;66.70
20971;BME280;10644;48.834;10.088;2023-03-14T01:12:35;95051.19;;;12.69;66.12
20971;BME280;10644;48.834;10.088;2023-03-14T01:15:02;95050.50;;;12.67;65.86
20971;BME280;10644;48.834;10.088;2023-03-14T01:17:33;95065.81;;;12.97;65.84
20971;BME280;10644;48.834;10.088;2023-03-14T01:20:11;95059.00;;;13.25;64.15
20971;BME280;10644;48.834;10.088;2023-03-14T01:22:39;95056.72;;;13.12;64.54
20971;BME280;10644;48.834;10.088;2023-03-14T01:25:08;95067.94;;;13.11;64.67
20971;BME280;10644;48.834;10.088;2023-03-14T01:27:40;95056.06;;;13.10;64.06
20971;BME280;10644;48.834;10.088;2023-03-14T01:30:09;95062.25;;;13.17;63.80
20971;BME280;10644;48.834;10.088;2023-03-14T01:32:50;95066.97;;;13.22;63.82
20971;BME280;10644;48.834;10.088;2023-03-14T01:35:17;95061.19;;;13.10;63.71
20971;BME280;10644;48.834;10.088;2023-03-14T01:37:44;95063.06;;;13.18;63.40
20971;BME280;10644;48.834;10.088;2023-03-14T01:40:16;95062.22;;;13.27;63.35
20971;BME280;10644;48.834;10.088;2023-03-14T01:43:06;95048.13;;;13.40;62.67
20971;BME280;10644;48.834;10.088;2023-03-14T01:48:45;95017.47;;;13.56;61.64
20971;BME280;10644;48.834;10.088;2023-03-14T01:57:24;94999.41;;;13.65;61.35
20971;BME280;10644;48.834;10.088;2023-03-14T02:00:00;95006.56;;;13.71;61.41
20971;BME280;10644;48.834;10.088;2023-03-14T02:02:50;95003.09;;;13.90;61.09
20971;BME280;10644;48.834;10.088;2023-03-14T02:05:38;94993.22;;;14.03;60.84
20971;BME280;10644;48.834;10.088;2023-03-14T02:08:07;94989.16;;;14.10;60.32
20971;BME280;10644;48.834;10.088;2023-03-14T02:10:41;94989.44;;;14.07;60.02
20971;BME280;10644;48.834;10.088;2023-03-14T02:13:15;94985.00;;;13.99;60.16
20971;BME280;10644;48.834;10.088;2023-03-14T02:15:43;94969.72;;;13.98;59.83
20971;BME280;10644;48.834;10.088;2023-03-14T02:18:23;94969.03;;;13.96;60.10
20971;BME280;10644;48.834;10.088;2023-03-14T02:21:09;94965.75;;;14.03;60.08
20971;BME280;10644;48.834;10.088;2023-03-14T02:26:28;94958.31;;;14.00;60.00
20971;BME280;10644;48.834;10.088;2023-03-14T02:28:57;94957.19;;;14.03;59.53
20971;BME280;10644;48.834;10.088;2023-03-14T02:31:30;94955.69;;;14.10;59.72
20971;BME280;10644;48.834;10.088;2023-03-14T02:34:01;94954.34;;;14.06;59.65
20971;BME280;10644;48.834;10.088;2023-03-14T02:36:39;94958.84;;;14.04;59.40
20971;BME280;10644;48.834;10.088;2023-03-14T02:39:21;94973.22;;;13.97;59.58
20971;BME280;10644;48.834;10.088;2023-03-14T02:41:49;94964.72;;;13.96;59.74
20971;BME280;10644;48.834;10.088;2023-03-14T02:44:22;94963.88;;;13.96;59.38
20971;BME280;10644;48.834;10.088;2023-03-14T02:46:57;94974.91;;;13.88;59.41
20971;BME280;10644;48.834;10.088;2023-03-14T02:49:23;94955.63;;;13.75;59.42
20971;BME280;10644;48.834;10.088;2023-03-14T02:52:03;94948.41;;;13.61;60.00
20971;BME280;10644;48.834;10.088;2023-03-14T02:54:48;94937.00;;;13.63;60.00
20971;BME280;10644;48.834;10.088;2023-03-14T02:57:14;94921.63;;;13.54;60.20
20971;BME280;10644;48.834;10.088;2023-03-14T02:59:48;94926.72;;;13.37;60.16
20971;BME280;10644;48.834;10.088;2023-03-14T03:02:13;94927.94;;;13.42;60.48
20971;BME280;10644;48.834;10.088;2023-03-14T03:04:44;94933.16;;;13.50;60.45
20971;BME280;10644;48.834;10.088;2023-03-14T03:07:10;94935.59;;;13.52;60.08
20971;BME280;10644;48.834;10.088;2023-03-14T03:09:36;94922.59;;;13.53;60.33
20971;BME280;10644;48.834;10.088;2023-03-14T03:12:08;94922.72;;;13.52;60.17
20971;BME280;10644;48.834;10.088;2023-03-14T03:14:39;94932.50;;;13.48;60.30
20971;BME280;10644;48.834;10.088;2023-03-14T03:17:21;94913.53;;;13.49;60.33
20971;BME280;10644;48.834;10.088;2023-03-14T03:19:46;94920.88;;;13.44;60.47
20971;BME280;10644;48.834;10.088;2023-03-14T03:22:18;94921.97;;;13.42;60.66
20971;BME280;10644;48.834;10.088;2023-03-14T03:24:49;94912.81;;;13.30;61.03
20971;BME280;10644;48.834;10.088;2023-03-14T03:27:50;94917.16;;;13.29;60.89
20971;BME280;10644;48.834;10.088;2023-03-14T03:30:17;94899.44;;;13.26;61.08
20971;BME280;10644;48.834;10.088;2023-03-14T03:33:03;94888.38;;;13.16;61.60
20971;BME280;10644;48.834;10.088;2023-03-14T03:35:43;94875.91;;;13.21;61.50
20971;BME280;10644;48.834;10.088;2023-03-14T03:38:10;94870.97;;;13.10;61.77
20971;BME280;10644;48.834;10.088;2023-03-14T03:41:02;94870.13;;;13.19;61.51
20971;BME280;10644;48.834;10.088;2023-03-14T03:43:27;94880.28;;;13.11;61.74
20971;BME280;10644;48.834;10.088;2023-03-14T03:46:07;94892.13;;;13.22;61.04
20971;BME280;10644;48.834;10.088;2023-03-14T03:48:43;94886.47;;;13.28;61.09
20971;BME280;10644;48.834;10.088;2023-03-14T03:51:15;94888.16;;;13.37;61.21
20971;BME280;10644;48.834;10.088;2023-03-14T03:53:59;94879.47;;;13.38;61.06
20971;BME280;10644;48.834;10.088;2023-03-14T03:56:33;94862.94;;;13.40;61.18
20971;BME280;10644;48.834;10.088;2023-03-14T03:59:00;94863.78;;;13.41;60.76
20971;BME280;10644;48.834;10.088;2023-03-14T04:01:43;94863.47;;;13.43;60.58
20971;BME280;10644;48.834;10.088;2023-03-14T04:04:09;94865.63;;;13.48;60.71
20971;BME280;10644;48.834;10.088;2023-03-14T04:10:16;94859.53;;;13.49;60.21
20971;BME280;10644;48.834;10.088;2023-03-14T04:12:42;94851.06;;;13.39;60.28
20971;BME280;10644;48.834;10.088;2023-03-14T04:15:07;94857.53;;;13.43;60.44
20971;BME280;10644;48.834;10.088;2023-03-14T04:17:34;94856.84;;;13.41;60.31
20971;BME280;10644;48.834;10.088;2023-03-14T04:20:00;94863.78;;;13.41;60.53
20971;BME280;10644;48.834;10.088;2023-03-14T04:22:46;94873.34;;;13.48;60.24
20971;BME280;10644;48.834;10.088;2023-03-14T04:25:19;94862.53;;;13.45;59.92
20971;BME280;10644;48.834;10.088;2023-03-14T04:28:02;94879.00;;;13.52;60.01
20971;BME280;10644;48.834;10.088;2023-03-14T04:30:35;94878.03;;;13.52;59.96
20971;BME280;10644;48.834;10.088;2023-03-14T04:33:09;94877.91;;;13.54;59.56
20971;BME280;10644;48.834;10.088;2023-03-14T04:35:47;94878.56;;;13.56;59.23
20971;BME280;10644;48.834;10.088;2023-03-14T04:38:25;94887.75;;;13.58;59.20
20971;BME280;10644;48.834;10.088;2023-03-14T04:40:52;94875.03;;;13.57;59.16
20971;BME280;10644;48.834;10.088;2023-03-14T04:43:28;94882.66;;;13.66;58.72
20971;BME280;10644;48.834;10.088;2023-03-14T04:46:11;94876.34;;;13.61;58.53
20971;BME280;10644;48.834;10.088;2023-03-14T04:48:40;94869.28;;;13.63;58.69
20971;BME280;10644;48.834;10.088;2023-03-14T04:51:06;94884.97;;;13.69;58.11
20971;BME280;10644;48.834;10.088;2023-03-14T04:53:55;94877.91;;;13.71;58.04
20971;BME280;10644;48.834;10.088;2023-03-14T04:56:26;94864.09;;;13.73;58.17
20971;BME280;10644;48.834;10.088;2023-03-14T04:58:57;94865.28;;;13.78;57.73
20971;BME280;10644;48.834;10.088;2023-03-14T05:01:34;94865.13;;;13.79;57.51
20971;BME280;10644;48.834;10.088;2023-03-14T05:04:01;94846.97;;;13.81;57.51
20971;BME280;10644;48.834;10.088;2023-03-14T05:06:27;94842.09;;;13.78;57.34
20971;BME280;10644;48.834;10.088;2023-03-14T05:08:54;94840.50;;;13.77;57.24
20971;BME280;10644;48.834;10.088;2023-03-14T05:11:27;94836.69;;;13.81;57.62
20971;BME280;10644;48.834;10.088;2023-03-14T05:13:54;94832.47;;;13.80;57.40
20971;BME280;10644;48.834;10.088;2023-03-14T05:16:19;94821.25;;;13.81;57.36
20971;BME280;10644;48.834;10.088;2023-03-14T05:18:47;94804.25;;;13.70;56.91
20971;BME280;10644;48.834;10.088;2023-03-14T05:21:44;94820.03;;;13.58;57.07
20971;BME280;10644;48.834;10.088;2023-03-14T05:24:15;94806.59;;;13.47;57.22
20971;BME280;10644;48.834;10.088;2023-03-14T05:26:40;94803.00;;;13.40;57.33
20971;BME280;10644;48.834;10.088;2023-03-14T05:29:22;94802.63;;;13.35;57.44
20971;BME280;10644;48.834;10.088;2023-03-14T05:31:47;94804.00;;;13.29;57.27
20971;BME280;10644;48.834;10.088;2023-03-14T05:34:29;94796.28;;;13.29;57.40
20971;BME280;10644;48.834;10.088;2023-03-14T05:37:14;94800.16;;;13.16;56.82
20971;BME280;10644;48.834;10.088;2023-03-14T05:39:46;94794.13;;;13.07;56.77
20971;BME280;10644;48.834;10.088;2023-03-14T05:42:11;94788.59;;;13.02;56.65
20971;BME280;10644;48.834;10.088;2023-03-14T05:44:41;94805.47;;;13.14;56.80
20971;BME280;10644;48.834;10.088;2023-03-14T05:47:13;94797.69;;;13.24;56.67
20971;BME280;10644;48.834;10.088;2023-03-14T05:49:58;94787.78;;;13.29;56.46
20971;BME280;10644;48.834;10.088;2023-03-14T05:52:23;94785.34;;;13.27;55.79
20971;BME280;10644;48.834;10.088;2023-03-14T05:54:54;94782.28;;;13.24;56.32
20971;BME280;10644;48.834;10.088;2023-03-14T05:57:19;94770.94;;;13.34;56.16
20971;BME280;10644;48.834;10.088;2023-03-14T05:59:51;94772.06;;;13.32;55.70
20971;BME280;10644;48.834;10.088;2023-03-14T06:02:32;94784.41;;;13.28;55.38
20971;BME280;10644;48.834;10.088;2023-03-14T06:05:07;94777.56;;;13.19;55.94
20971;BME280;10644;48.834;10.088;2023-03-14T06:07:40;94791.88;;;13.22;55.25
20971;BME280;10644;48.834;10.088;2023-03-14T06:10:06;94780.78;;;13.21;55.62
20971;BME280;10644;48.834;10.088;2023-03-14T06:12:34;94780.56;;;13.15;55.91
20971;BME280;10644;48.834;10.088;2023-03-14T06:15:02;94787.31;;;13.16;56.00
20971;BME280;10644;48.834;10.088;2023-03-14T06:17:29;94788.41;;;13.13;55.86
20971;BME280;10644;48.834;10.088;2023-03-14T06:20:04;94780.03;;;13.11;55.92
20971;BME280;10644;48.834;10.088;2023-03-14T06:22:31;94777.22;;;13.05;56.02
20971;BME280;10644;48.834;10.088;2023-03-14T06:25:01;94778.31;;;13.02;56.33
20971;BME280;10644;48.834;10.088;2023-03-14T06:27:29;94776.56;;;13.03;56.53
20971;BME280;10644;48.834;10.088;2023-03-14T06:30:01;94764.81;;;13.00;55.92
20971;BME280;10644;48.834;10.088;2023-03-14T06:32:26;94765.19;;;13.05;56.07
20971;BME280;10644;48.834;10.088;2023-03-14T06:34:56;94763.47;;;13.06;56.17
20971;BME280;10644;48.834;10.088;2023-03-14T06:37:35;94756.69;;;13.22;56.25
20971;BME280;10644;48.834;10.088;2023-03-14T06:40:00;94771.53;;;13.28;55.84
20971;BME280;10644;48.834;10.088;2023-03-14T06:42:28;94766.13;;;13.31;55.99
20971;BME280;10644;48.834;10.088;2023-03-14T06:45:12;94764.47;;;13.30;55.71
20971;BME280;10644;48.834;10.088;2023-03-14T06:47:40;94769.63;;;13.30;55.74
20971;BME280;10644;48.834;10.088;2023-03-14T06:50:09;94782.41;;;13.22;55.41
20971;BME280;10644;48.834;10.088;2023-03-14T06:52:42;94789.03;;;13.25;55.64
20971;BME280;10644;48.834;10.088;2023-03-14T06:55:15;94773.31;;;13.28;55.49
20971;BME280;10644;48.834;10.088;2023-03-14T06:57:43;94783.16;;;13.32;55.81
20971;BME280;10644;48.834;10.088;2023-03-14T07:00:11;94783.44;;;13.29;55.85
20971;BME280;10644;48.834;10.088;2023-03-14T07:03:00;94775.88;;;13.45;55.87
20971;BME280;10644;48.834;10.088;2023-03-14T07:05:28;94775.44;;;13.49;55.00
20971;BME280;10644;48.834;10.088;2023-03-14T07:08:01;94773.44;;;13.61;55.23
20971;BME280;10644;48.834;10.088;2023-03-14T07:10:32;94774.78;;;13.65;55.15
20971;BME280;10644;48.834;10.088;2023-03-14T07:13:09;94774.97;;;13.71;55.14
20971;BME280;10644;48.834;10.088;2023-03-14T07:15:45;94784.16;;;13.74;54.24
20971;BME280;10644;48.834;10.088;2023-03-14T07:18:11;94789.31;;;13.74;54.19
20971;BME280;10644;48.834;10.088;2023-03-14T07:20:36;94785.88;;;13.65;54.62
20971;BME280;10644;48.834;10.088;2023-03-14T07:23:03;94791.25;;;13.72;54.67
20971;BME280;10644;48.834;10.088;2023-03-14T07:25:39;94798.59;;;13.84;54.57
20971;BME280;10644;48.834;10.088;2023-03-14T07:28:21;94797.81;;;13.92;54.23
20971;BME280;10644;48.834;10.088;2023-03-14T07:31:06;94808.44;;;13.89;53.28
20971;BME280;10644;48.834;10.088;2023-03-14T07:33:40;94810.34;;;13.87;54.21
20971;BME280;10644;48.834;10.088;2023-03-14T07:36:07;94816.38;;;13.78;54.89
20971;BME280;10644;48.834;10.088;2023-03-14T07:38:40;94820.66;;;13.87;54.91
20971;BME280;10644;48.834;10.088;2023-03-14T07:41:06;94818.94;;;13.95;54.63
20971;BME280;10644;48.834;10.088;2023-03-14T07:43:38;94818.16;;;14.03;54.96
20971;BME280;10644;48.834;10.088;2023-03-14T07:46:11;94818.53;;;14.08;55.06
20971;BME280;10644;48.834;10.088;2023-03-14T07:48:36;94815.16;;;14.07;55.39
20971;BME280;10644;48.834;10.088;2023-03-14T07:51:02;94818.84;;;14.05;55.59
20971;BME280;10644;48.834;10.088;2023-03-14T07:53:27;94824.50;;;14.08;56.11
20971;BME280;10644;48.834;10.088;2023-03-14T07:56:06;94815.91;;;14.00;56.38
20971;BME280;10644;48.834;10.088;2023-03-14T07:58:33;94802.53;;;13.79;57.10
20971;BME280;10644;48.834;10.088;2023-03-14T08:01:04;94797.13;;;13.82;57.18
20971;BME280;10644;48.834;10.088;2023-03-14T08:03:35;94800.88;;;13.70;56.94
20971;BME280;10644;48.834;10.088;2023-03-14T08:06:01;94801.94;;;13.85;56.79
20971;BME280;10644;48.834;10.088;2023-03-14T08:08:28;94808.44;;;13.89;56.93
20971;BME280;10644;48.834;10.088;2023-03-14T08:11:06;94801.66;;;13.88;56.61
20971;BME280;10644;48.834;10.088;2023-03-14T08:13:36;94800.38;;;13.92;56.71
20971;BME280;10644;48.834;10.088;2023-03-14T08:16:06;94791.31;;;14.05;56.61
20971;BME280;10644;48.834;10.088;2023-03-14T08:18:44;94792.88;;;14.16;55.88
20971;BME280;10644;48.834;10.088;2023-03-14T08:21:12;94786.19;;;14.23;54.94
20971;BME280;10644;48.834;10.088;2023-03-14T08:23:44;94788.13;;;14.29;55.14
20971;BME280;10644;48.834;10.088;2023-03-14T08:26:18;94795.97;;;14.45;54.90
20971;BME280;10644;48.834;10.088;2023-03-14T08:28:49;94800.00;;;14.47;54.95
20971;BME280;10644;48.834;10.088;2023-03-14T08:31:36;94800.53;;;14.59;54.29
20971;BME280;10644;48.834;10.088;2023-03-14T08:34:02;94809.72;;;14.61;53.15
20971;BME280;10644;48.834;10.088;2023-03-14T08:36:29;94803.94;;;14.59;53.33
20971;BME280;10644;48.834;10.088;2023-03-14T08:38:56;94803.69;;;14.78;53.06
20971;BME280;10644;48.834;10.088;2023-03-14T08:41:34;94795.53;;;14.83;52.32
20971;BME280;10644;48.834;10.088;2023-03-14T08:44:10;94811.91;;;14.74;51.84
20971;BME280;10644;48.834;10.088;2023-03-14T08:46:51;94808.22;;;14.76;52.10
20971;BME280;10644;48.834;10.088;2023-03-14T08:49:17;94800.69;;;14.83;52.21
20971;BME280;10644;48.834;10.088;2023-03-14T08:51:44;94814.81;;;14.79;51.06
20971;BME280;10644;48.834;10.088;2023-03-14T08:54:15;94812.63;;;14.58;51.67
20971;BME280;10644;48.834;10.088;2023-03-14T08:57:06;94801.59;;;14.74;51.34
20971;BME280;10644;48.834;10.088;2023-03-14T09:00:00;94791.19;;;14.58;51.43
20971;BME280;10644;48.834;10.088;2023-03-14T09:02:32;94804.06;;;14.50;51.30
20971;BME280;10644;48.834;10.088;2023-03-14T09:04:59;94792.50;;;14.54;51.08
20971;BME280;10644;48.834;10.088;2023-03-14T09:07:25;94800.59;;;14.67;50.80
20971;BME280;10644;48.834;10.088;2023-03-14T09:09:51;94803.19;;;14.75;50.49
20971;BME280;10644;48.834;10.088;2023-03-14T09:12:44;94802.69;;;14.71;50.09
20971;BME280;10644;48.834;10.088;2023-03-14T09:15:15;94783.28;;;14.85;50.47
20971;BME280;10644;48.834;10.088;2023-03-14T09:17:56;94791.72;;;15.03;51.00
20971;BME280;10644;48.834;10.088;2023-03-14T09:20:22;94790.59;;;15.05;50.29
20971;BME280;10644;48.834;10.088;2023-03-14T09:22:57;94793.38;;;15.20;50.20
20971;BME280;10644;48.834;10.088;2023-03-14T09:25:28;94805.81;;;15.24;49.24
20971;BME280;10644;48.834;10.088;2023-03-14T09:27:54;94793.38;;;15.20;49.48
20971;BME280;10644;48.834;10.088;2023-03-14T09:30:20;94792.44;;;15.29;49.03
20971;BME280;10644;48.834;10.088;2023-03-14T09:33:08;94786.88;;;15.41;49.58
20971;BME280;10644;48.834;10.088;2023-03-14T09:35:34;94795.66;;;15.23;48.75
20971;BME280;10644;48.834;10.088;2023-03-14T09:37:59;94781.59;;;15.09;48.35
20971;BME280;10644;48.834;10.088;2023-03-14T09:40:31;94779.50;;;15.05;49.26
20971;BME280;10644;48.834;10.088;2023-03-14T09:43:14;94784.66;;;15.21;48.44
20971;BME280;10644;48.834;10.088;2023-03-14T09:45:41;94784.31;;;15.08;47.67
20971;BME280;10644;48.834;10.088;2023-03-14T09:48:15;94798.88;;;15.17;49.18
20971;BME280;10644;48.834;10.088;2023-03-14T09:50:57;94779.41;;;15.30;49.13
20971;BME280;10644;48.834;10.088;2023-03-14T09:53:45;94782.19;;;15.45;49.22
20971;BME280;10644;48.834;10.088;2023-03-14T09:56:17;94773.50;;;15.62;48.50
20971;BME280;10644;48.834;10.088;2023-03-14T09:58:49;94792.03;;;15.73;48.42
20971;BME280;10644;48.834;10.088;2023-03-14T10:01:24;94794.28;;;15.68;48.61
20971;BME280;10644;48.834;10.088;2023-03-14T10:03:56;94800.88;;;15.39;48.14
20971;BME280;10644;48.834;10.088;2023-03-14T10:06:26;94788.75;;;15.31;48.80
20971;BME280;10644;48.834;10.088;2023-03-14T10:08:54;94797.91;;;15.26;48.57
20971;BME280;10644;48.834;10.088;2023-03-14T10:11:20;94782.41;;;15.18;49.46
20971;BME280;10644;48.834;10.088;2023-03-14T10:14:09;94774.84;;;15.16;49.39
20971;BME280;10644;48.834;10.088;2023-03-14T10:16:50;94796.06;;;15.44;49.77
20971;BME280;10644;48.834;10.088;2023-03-14T10:19:16;94795.06;;;15.37;48.63
20971;BME280;10644;48.834;10.088;2023-03-14T10:21:53;94780.56;;;15.36;49.22
20971;BME280;10644;48.834;10.088;2023-03-14T10:24:32;94782.97;;;15.45;49.29
20971;BME280;10644;48.834;10.088;2023-03-14T10:27:04;94780.91;;;15.65;48.45
20971;BME280;10644;48.834;10.088;2023-03-14T10:29:33;94774.16;;;15.56;49.23
20971;BME280;10644;48.834;10.088;2023-03-14T10:32:19;94779.94;;;15.82;48.89
20971;BME280;10644;48.834;10.088;2023-03-14T10:37:55;94791.41;;;16.27;49.00
20971;BME280;10644;48.834;10.088;2023-03-14T10:40:30;94794.31;;;16.40;47.75
20971;BME280;10644;48.834;10.088;2023-03-14T10:43:05;94790.91;;;16.24;48.17
20971;BME280;10644;48.834;10.088;2023-03-14T10:48:39;94798.03;;;15.82;47.65
20971;BME280;10644;48.834;10.088;2023-03-14T10:51:34;94808.66;;;15.71;47.83
20971;BME280;10644;48.834;10.088;2023-03-14T10:54:14;94811.06;;;15.48;48.38
20971;BME280;10644;48.834;10.088;2023-03-14T10:56:56;94803.50;;;15.71;48.59
20971;BME280;10644;48.834;10.088;2023-03-14T10:59:47;94806.09;;;15.63;48.62
20971;BME280;10644;48.834;10.088;2023-03-14T11:13:29;94788.09;;;16.73;47.91
20971;BME280;10644;48.834;10.088;2023-03-14T11:19:23;94792.84;;;17.31;45.30
20971;BME280;10644;48.834;10.088;2023-03-14T11:22:13;94798.31;;;17.44;45.51
20971;BME280;10644;48.834;10.088;2023-03-14T11:25:06;94791.41;;;17.81;43.66
20971;BME280;10644;48.834;10.088;2023-03-14T11:36:08;94812.81;;;17.14;44.81
20971;BME280;10644;48.834;10.088;2023-03-14T11:38:55;94786.59;;;16.87;46.31
20971;BME280;10644;48.834;10.088;2023-03-14T11:41:46;94789.03;;;16.80;46.43
20971;BME280;10644;48.834;10.088;2023-03-14T11:47:51;94803.78;;;16.64;46.84
20971;BME280;10644;48.834;10.088;2023-03-14T11:50:33;94817.06;;;16.37;48.68
20971;BME280;10644;48.834;10.088;2023-03-14T12:02:48;94847.97;;;15.49;54.60
20971;BME280;10644;48.834;10.088;2023-03-14T12:14:15;94850.53;;;15.33;56.03
20971;BME280;10644;48.834;10.088;2023-03-14T12:16:48;94860.09;;;15.15;57.01
20971;BME280;10644;48.834;10.088;2023-03-14T12:19:36;94882.06;;;15.27;56.10
20971;BME280;10644;48.834;10.088;2023-03-14T12:28:19;94877.97;;;15.08;58.79
20971;BME280;10644;48.834;10.088;2023-03-14T12:37:31;94876.06;;;14.85;59.09
20971;BME280;10644;48.834;10.088;2023-03-14T12:42:59;94876.03;;;14.77;60.30
20971;BME280;10644;48.834;10.088;2023-03-14T12:45:39;94883.84;;;14.93;59.48
20971;BME280;10644;48.834;10.088;2023-03-14T12:48:37;94885.88;;;14.56;60.22
20971;BME280;10644;48.834;10.088;2023-03-14T12:51:17;94905.50;;;14.49;59.69
20971;BME280;10644;48.834;10.088;2023-03-14T13:08:35;94932.41;;;14.02;60.96
20971;BME280;10644;48.834;10.088;2023-03-14T13:11:06;94933.06;;;13.86;61.41
20971;BME280;10644;48.834;10.088;2023-03-14T13:14:08;94935.78;;;13.85;61.11
20971;BME280;10644;48.834;10.088;2023-03-14T13:16:53;94927.53;;;13.64;61.59
20971;BME280;10644;48.834;10.088;2023-03-14T13:19:24;94927.22;;;13.67;62.01
20971;BME280;10644;48.834;10.088;2023-03-14T13:21:56;94922.53;;;13.80;60.63
20971;BME280;10644;48.834;10.088;2023-03-14T13:24:47;94931.59;;;13.40;61.59
20971;BME280;10644;48.834;10.088;2023-03-14T13:27:20;94978.03;;;13.38;61.52
20971;BME280;10644;48.834;10.088;2023-03-14T13:29:57;94967.53;;;13.22;60.73
20971;BME280;10644;48.834;10.088;2023-03-14T13:32:27;94986.50;;;13.02;59.15
20971;BME280;10644;48.834;10.088;2023-03-14T13:34:59;95021.00;;;12.90;58.83
20971;BME280;10644;48.834;10.088;2023-03-14T13:37:31;95016.38;;;13.22;58.07
20971;BME280;10644;48.834;10.088;2023-03-14T13:40:00;95026.03;;;13.11;58.63
20971;BME280;10644;48.834;10.088;2023-03-14T13:49:23;95110.41;;;12.00;59.17
20971;BME280;10644;48.834;10.088;2023-03-14T13:51:54;95106.47;;;11.96;58.74
20971;BME280;10644;48.834;10.088;2023-03-14T13:54:29;95113.19;;;11.87;58.55
20971;BME280;10644;48.834;10.088;2023-03-14T13:57:00;95109.81;;;11.87;57.98
20971;BME280;10644;48.834;10.088;2023-03-14T13:59:34;95124.56;;;11.94;57.83
20971;BME280;10644;48.834;10.088;2023-03-14T14:02:13;95125.34;;;11.85;52.33
20971;BME280;10644;48.834;10.088;2023-03-14T14:04:45;95155.81;;;11.79;50.29
20971;BME280;10644;48.834;10.088;2023-03-14T14:07:30;95167.22;;;11.95;47.33
20971;BME280;10644;48.834;10.088;2023-03-14T14:10:04;95161.50;;;11.82;47.48
20971;BME280;10644;48.834;10.088;2023-03-14T14:12:33;95183.44;;;11.66;49.06
20971;BME280;10644;48.834;10.088;2023-03-14T14:15:23;95188.13;;;11.61;49.46
20971;BME280;10644;48.834;10.088;2023-03-14T14:18:22;95185.22;;;11.75;49.09
20971;BME280;10644;48.834;10.088;2023-03-14T14:20:53;95209.50;;;11.71;48.01
20971;BME280;10644;48.834;10.088;2023-03-14T14:23:30;95220.56;;;11.71;47.28
20971;BME280;10644;48.834;10.088;2023-03-14T14:26:02;95209.75;;;11.68;47.59
20971;BME280;10644;48.834;10.088;2023-03-14T14:28:37;95219.09;;;11.58;47.42
20971;BME280;10644;48.834;10.088;2023-03-14T14:31:39;95232.34;;;11.74;47.40
20971;BME280;10644;48.834;10.088;2023-03-14T14:34:22;95252.81;;;11.53;46.42
20971;BME280;10644;48.834;10.088;2023-03-14T14:36:59;95272.75;;;11.50;45.96
20971;BME280;10644;48.834;10.088;2023-03-14T14:39:29;95246.56;;;11.46;45.17
20971;BME280;10644;48.834;10.088;2023-03-14T14:42:21;95259.81;;;11.51;46.17
20971;BME280;10644;48.834;10.088;2023-03-14T14:44:50;95276.84;;;11.52;45.79
20971;BME280;10644;48.834;10.088;2023-03-14T14:47:21;95278.84;;;11.49;48.22
20971;BME280;10644;48.834;10.088;2023-03-14T14:50:00;95288.06;;;11.40;44.48
20971;BME280;10644;48.834;10.088;2023-03-14T14:52:45;95293.50;;;11.15;44.66
20971;BME280;10644;48.834;10.088;2023-03-14T14:55:20;95301.41;;;11.23;44.31
20971;BME280;10644;48.834;10.088;2023-03-14T14:57:54;95321.66;;;11.26;44.48
20971;BME280;10644;48.834;10.088;2023-03-14T15:00:34;95313.03;;;11.27;43.85
20971;BME280;10644;48.834;10.088;2023-03-14T15:03:12;95330.09;;;11.17;44.46
20971;BME280;10644;48.834;10.088;2023-03-14T15:08:36;95351.41;;;11.07;43.37
20971;BME280;10644;48.834;10.088;2023-03-14T15:11:26;95381.81;;;11.00;43.11
20971;BME280;10644;48.834;10.088;2023-03-14T15:13:52;95368.06;;;11.01;42.63